sensor_id;sensor_type;location;lat;lon;timestamp;temperature;humidity
4564;DHT22;2294;51.818;8.484;2023-02-11T00:01:28;8.60;99.90
4564;DHT22;2294;51.818;8.484;2023-02-11T00:03:57;8.60;99.90
4564;DHT22;2294;51.818;8.484;2023-02-11T00:06:25;8.70;99.90
4564;DHT22;2294;51.818;8.484;2023-02-11T00:08:52;8.80;99.90
4564;DHT22;2294;51.818;8.484;2023-02-11T00:11:21;8.80;99.90
4564;DHT22;2294;51.818;8.484;2023-02-11T00:13:51;8.90;99.90
4564;DHT22;2294;51.818;8.484;2023-02-11T00:16:20;8.90;99.90
4564;DHT22;2294;51.818;8.484;2023-02-11T00:18:47;9.00;99.90
4564;DHT22;2294;51.818;8.484;2023-02-11T00:21:17;9.10;99.90
4564;DHT22;2294;51.818;8.484;2023-02-11T00:23:45;9.10;99.90
4564;DHT22;2294;51.818;8.484;2023-02-11T00:26:13;9.20;99.90
4564;DHT22;2294;51.818;8.484;2023-02-11T00:28:41;9.30;99.90
4564;DHT22;2294;51.818;8.484;2023-02-11T00:31:10;9.30;99.90
4564;DHT22;2294;51.818;8.484;2023-02-11T00:33:36;9.30;99.90
4564;DHT22;2294;51.818;8.484;2023-02-11T00:36:05;9.30;99.90
4564;DHT22;2294;51.818;8.484;2023-02-11T00:41:04;9.30;99.90
4564;DHT22;2294;51.818;8.484;2023-02-11T00:43:31;9.40;99.90
4564;DHT22;2294;51.818;8.484;2023-02-11T00:45:58;9.40;99.90
4564;DHT22;2294;51.818;8.484;2023-02-11T00:48:26;9.40;99.90
4564;DHT22;2294;51.818;8.484;2023-02-11T00:50:53;9.40;99.90
4564;DHT22;2294;51.818;8.484;2023-02-11T00:53:20;9.40;99.90
4564;DHT22;2294;51.818;8.484;2023-02-11T00:55:47;9.50;99.90
4564;DHT22;2294;51.818;8.484;2023-02-11T00:58:14;9.50;99.90
4564;DHT22;2294;51.818;8.484;2023-02-11T01:00:41;9.50;99.90
4564;DHT22;2294;51.818;8.484;2023-02-11T01:03:08;9.50;99.90
4564;DHT22;2294;51.818;8.484;2023-02-11T01:05:36;9.50;99.90
4564;DHT22;2294;51.818;8.484;2023-02-11T01:08:03;9.50;99.90
4564;DHT22;2294;51.818;8.484;2023-02-11T01:10:30;9.50;99.90
4564;DHT22;2294;51.818;8.484;2023-02-11T01:12:57;9.60;99.90
4564;DHT22;2294;51.818;8.484;2023-02-11T01:15:26;9.60;99.90
4564;DHT22;2294;51.818;8.484;2023-02-11T01:17:53;9.70;99.90
4564;DHT22;2294;51.818;8.484;2023-02-11T01:20:22;9.70;99.90
4564;DHT22;2294;51.818;8.484;2023-02-11T01:22:50;9.70;99.90
4564;DHT22;2294;51.818;8.484;2023-02-11T01:25:17;9.70;99.90
4564;DHT22;2294;51.818;8.484;2023-02-11T01:27:44;9.80;99.90
4564;DHT22;2294;51.818;8.484;2023-02-11T01:30:12;9.80;99.90
4564;DHT22;2294;51.818;8.484;2023-02-11T01:32:39;9.80;99.90
4564;DHT22;2294;51.818;8.484;2023-02-11T01:35:07;9.80;99.90
4564;DHT22;2294;51.818;8.484;2023-02-11T01:37:34;9.80;99.90
4564;DHT22;2294;51.818;8.484;2023-02-11T01:40:04;9.90;99.90
4564;DHT22;2294;51.818;8.484;2023-02-11T01:42:32;9.80;99.90
4564;DHT22;2294;51.818;8.484;2023-02-11T01:45:00;9.80;99.90
4564;DHT22;2294;51.818;8.484;2023-02-11T01:47:27;9.80;99.90
4564;DHT22;2294;51.818;8.484;2023-02-11T01:49:57;9.80;99.90
4564;DHT22;2294;51.818;8.484;2023-02-11T01:52:27;9.80;99.90
4564;DHT22;2294;51.818;8.484;2023-02-11T01:54:59;9.90;99.90
4564;DHT22;2294;51.818;8.484;2023-02-11T01:57:49;9.90;99.90
4564;DHT22;2294;51.818;8.484;2023-02-11T02:00:20;9.90;99.90
4564;DHT22;2294;51.818;8.484;2023-02-11T02:02:53;9.90;99.90
4564;DHT22;2294;51.818;8.484;2023-02-11T02:05:26;10.00;99.90
4564;DHT22;2294;51.818;8.484;2023-02-11T02:08:04;10.00;99.90
4564;DHT22;2294;51.818;8.484;2023-02-11T02:10:33;10.10;99.90
4564;DHT22;2294;51.818;8.484;2023-02-11T02:13:02;10.00;99.90
4564;DHT22;2294;51.818;8.484;2023-02-11T02:15:31;10.00;99.90
4564;DHT22;2294;51.818;8.484;2023-02-11T02:18:08;10.10;99.90
4564;DHT22;2294;51.818;8.484;2023-02-11T02:21:14;10.10;99.90
4564;DHT22;2294;51.818;8.484;2023-02-11T02:27:15;10.20;99.90
4564;DHT22;2294;51.818;8.484;2023-02-11T02:30:34;10.20;99.90
4564;DHT22;2294;51.818;8.484;2023-02-11T02:33:17;10.30;99.90
4564;DHT22;2294;51.818;8.484;2023-02-11T02:35:55;10.30;99.90
4564;DHT22;2294;51.818;8.484;2023-02-11T02:38:27;10.30;99.90
4564;DHT22;2294;51.818;8.484;2023-02-11T02:40:59;10.40;99.90
4564;DHT22;2294;51.818;8.484;2023-02-11T02:43:28;10.40;99.90
4564;DHT22;2294;51.818;8.484;2023-02-11T02:46:09;10.50;99.90
4564;DHT22;2294;51.818;8.484;2023-02-11T02:48:37;10.50;99.90
4564;DHT22;2294;51.818;8.484;2023-02-11T02:51:14;10.50;99.90
4564;DHT22;2294;51.818;8.484;2023-02-11T02:53:57;10.50;99.90
4564;DHT22;2294;51.818;8.484;2023-02-11T02:56:32;10.60;99.90
4564;DHT22;2294;51.818;8.484;2023-02-11T02:59:14;10.60;99.90
4564;DHT22;2294;51.818;8.484;2023-02-11T03:01:49;10.60;99.90
4564;DHT22;2294;51.818;8.484;2023-02-11T03:04:28;10.70;99.90
4564;DHT22;2294;51.818;8.484;2023-02-11T03:07:00;10.70;99.90
4564;DHT22;2294;51.818;8.484;2023-02-11T03:09:32;10.70;99.90
4564;DHT22;2294;51.818;8.484;2023-02-11T03:12:02;10.80;99.90
4564;DHT22;2294;51.818;8.484;2023-02-11T03:14:31;10.80;99.90
4564;DHT22;2294;51.818;8.484;2023-02-11T03:17:00;10.80;99.90
4564;DHT22;2294;51.818;8.484;2023-02-11T03:19:34;10.80;99.90
4564;DHT22;2294;51.818;8.484;2023-02-11T03:22:06;10.80;99.90
4564;DHT22;2294;51.818;8.484;2023-02-11T03:24:36;10.80;99.90
4564;DHT22;2294;51.818;8.484;2023-02-11T03:27:09;10.90;99.90
4564;DHT22;2294;51.818;8.484;2023-02-11T03:29:41;10.90;99.90
4564;DHT22;2294;51.818;8.484;2023-02-11T03:32:13;10.80;99.90
4564;DHT22;2294;51.818;8.484;2023-02-11T03:34:45;10.90;99.90
4564;DHT22;2294;51.818;8.484;2023-02-11T03:37:17;10.80;99.90
4564;DHT22;2294;51.818;8.484;2023-02-11T03:39:49;10.90;99.90
4564;DHT22;2294;51.818;8.484;2023-02-11T03:42:17;10.80;99.90
4564;DHT22;2294;51.818;8.484;2023-02-11T03:44:48;10.90;99.90
4564;DHT22;2294;51.818;8.484;2023-02-11T03:47:18;10.90;99.90
4564;DHT22;2294;51.818;8.484;2023-02-11T03:49:49;10.90;99.90
4564;DHT22;2294;51.818;8.484;2023-02-11T03:52:18;10.90;99.90
4564;DHT22;2294;51.818;8.484;2023-02-11T03:54:46;10.90;99.90
4564;DHT22;2294;51.818;8.484;2023-02-11T03:57:14;10.90;99.90
4564;DHT22;2294;51.818;8.484;2023-02-11T03:59:52;11.00;99.90
4564;DHT22;2294;51.818;8.484;2023-02-11T04:02:20;10.90;99.90
4564;DHT22;2294;51.818;8.484;2023-02-11T04:04:49;11.00;99.90
4564;DHT22;2294;51.818;8.484;2023-02-11T04:07:16;11.00;99.90
4564;DHT22;2294;51.818;8.484;2023-02-11T04:09:43;11.00;99.90
4564;DHT22;2294;51.818;8.484;2023-02-11T04:12:09;11.00;99.90
4564;DHT22;2294;51.818;8.484;2023-02-11T04:14:36;11.00;99.90
4564;DHT22;2294;51.818;8.484;2023-02-11T04:17:04;11.00;99.90
4564;DHT22;2294;51.818;8.484;2023-02-11T04:19:31;11.00;99.90
4564;DHT22;2294;51.818;8.484;2023-02-11T04:21:59;11.00;99.90
4564;DHT22;2294;51.818;8.484;2023-02-11T04:24:26;10.90;99.90
4564;DHT22;2294;51.818;8.484;2023-02-11T04:26:53;11.00;99.90
4564;DHT22;2294;51.818;8.484;2023-02-11T04:29:20;11.00;99.90
4564;DHT22;2294;51.818;8.484;2023-02-11T04:31:47;11.50;99.90
4564;DHT22;2294;51.818;8.484;2023-02-11T04:34:14;10.90;99.90
4564;DHT22;2294;51.818;8.484;2023-02-11T04:36:41;10.90;99.90
4564;DHT22;2294;51.818;8.484;2023-02-11T04:39:10;10.80;99.90
4564;DHT22;2294;51.818;8.484;2023-02-11T04:41:37;10.90;99.90
4564;DHT22;2294;51.818;8.484;2023-02-11T04:44:04;10.00;99.90
4564;DHT22;2294;51.818;8.484;2023-02-11T04:46:31;10.90;99.90
4564;DHT22;2294;51.818;8.484;2023-02-11T04:48:58;10.80;99.90
4564;DHT22;2294;51.818;8.484;2023-02-11T04:51:25;10.80;99.90
4564;DHT22;2294;51.818;8.484;2023-02-11T04:53:51;10.90;99.90
4564;DHT22;2294;51.818;8.484;2023-02-11T04:56:20;10.80;99.90
4564;DHT22;2294;51.818;8.484;2023-02-11T04:58:46;10.80;99.90
4564;DHT22;2294;51.818;8.484;2023-02-11T05:01:15;10.80;99.90
4564;DHT22;2294;51.818;8.484;2023-02-11T05:03:44;10.70;99.90
4564;DHT22;2294;51.818;8.484;2023-02-11T05:06:11;10.30;99.90
4564;DHT22;2294;51.818;8.484;2023-02-11T05:08:38;10.70;99.90
4564;DHT22;2294;51.818;8.484;2023-02-11T05:11:06;10.80;99.90
4564;DHT22;2294;51.818;8.484;2023-02-11T05:13:34;10.70;99.90
4564;DHT22;2294;51.818;8.484;2023-02-11T05:16:01;10.70;99.90
4564;DHT22;2294;51.818;8.484;2023-02-11T05:18:28;10.70;99.90
4564;DHT22;2294;51.818;8.484;2023-02-11T05:20:55;10.60;99.90
4564;DHT22;2294;51.818;8.484;2023-02-11T05:23:22;10.70;99.90
4564;DHT22;2294;51.818;8.484;2023-02-11T05:25:49;10.70;99.90
4564;DHT22;2294;51.818;8.484;2023-02-11T05:28:16;10.70;99.90
4564;DHT22;2294;51.818;8.484;2023-02-11T05:30:44;10.60;99.90
4564;DHT22;2294;51.818;8.484;2023-02-11T05:33:11;10.60;99.90
4564;DHT22;2294;51.818;8.484;2023-02-11T05:35:38;10.60;99.90
4564;DHT22;2294;51.818;8.484;2023-02-11T05:38:05;10.60;99.90
4564;DHT22;2294;51.818;8.484;2023-02-11T05:40:32;10.60;99.90
4564;DHT22;2294;51.818;8.484;2023-02-11T05:42:58;10.60;99.90
4564;DHT22;2294;51.818;8.484;2023-02-11T05:45:25;10.60;99.90
4564;DHT22;2294;51.818;8.484;2023-02-11T05:47:54;10.80;99.90
4564;DHT22;2294;51.818;8.484;2023-02-11T05:50:21;10.60;99.90
4564;DHT22;2294;51.818;8.484;2023-02-11T05:52:48;10.60;99.90
4564;DHT22;2294;51.818;8.484;2023-02-11T05:55:14;10.60;99.90
4564;DHT22;2294;51.818;8.484;2023-02-11T05:57:41;10.60;99.90
4564;DHT22;2294;51.818;8.484;2023-02-11T06:00:09;10.80;99.90
4564;DHT22;2294;51.818;8.484;2023-02-11T06:02:36;10.60;99.90
4564;DHT22;2294;51.818;8.484;2023-02-11T06:05:05;10.50;99.90
4564;DHT22;2294;51.818;8.484;2023-02-11T06:07:32;10.50;99.90
4564;DHT22;2294;51.818;8.484;2023-02-11T06:09:59;10.60;99.90
4564;DHT22;2294;51.818;8.484;2023-02-11T06:12:26;10.60;99.90
4564;DHT22;2294;51.818;8.484;2023-02-11T06:14:53;10.60;99.90
4564;DHT22;2294;51.818;8.484;2023-02-11T06:17:20;10.60;99.90
4564;DHT22;2294;51.818;8.484;2023-02-11T06:19:47;10.60;99.90
4564;DHT22;2294;51.818;8.484;2023-02-11T06:22:16;10.60;99.90
4564;DHT22;2294;51.818;8.484;2023-02-11T06:24:43;10.60;99.90
4564;DHT22;2294;51.818;8.484;2023-02-11T06:27:10;10.60;99.90
4564;DHT22;2294;51.818;8.484;2023-02-11T06:29:36;10.60;99.90
4564;DHT22;2294;51.818;8.484;2023-02-11T06:32:03;10.60;99.90
4564;DHT22;2294;51.818;8.484;2023-02-11T06:34:30;10.60;99.90
4564;DHT22;2294;51.818;8.484;2023-02-11T06:36:57;10.60;99.90
4564;DHT22;2294;51.818;8.484;2023-02-11T06:39:25;10.60;99.90
4564;DHT22;2294;51.818;8.484;2023-02-11T06:41:52;10.60;99.90
4564;DHT22;2294;51.818;8.484;2023-02-11T06:44:19;10.50;99.90
4564;DHT22;2294;51.818;8.484;2023-02-11T06:46:46;10.60;99.90
4564;DHT22;2294;51.818;8.484;2023-02-11T06:49:13;10.60;99.90
4564;DHT22;2294;51.818;8.484;2023-02-11T06:51:40;10.60;99.90
4564;DHT22;2294;51.818;8.484;2023-02-11T06:54:07;10.60;99.90
4564;DHT22;2294;51.818;8.484;2023-02-11T06:56:38;10.60;99.90
4564;DHT22;2294;51.818;8.484;2023-02-11T06:59:06;10.70;99.90
4564;DHT22;2294;51.818;8.484;2023-02-11T07:01:33;10.70;99.90
4564;DHT22;2294;51.818;8.484;2023-02-11T07:04:00;10.70;99.90
4564;DHT22;2294;51.818;8.484;2023-02-11T07:06:27;10.70;99.90
4564;DHT22;2294;51.818;8.484;2023-02-11T07:08:54;10.70;99.90
4564;DHT22;2294;51.818;8.484;2023-02-11T07:11:23;10.70;99.90
4564;DHT22;2294;51.818;8.484;2023-02-11T07:13:53;10.80;99.90
4564;DHT22;2294;51.818;8.484;2023-02-11T07:16:21;10.80;99.90
4564;DHT22;2294;51.818;8.484;2023-02-11T07:18:48;10.80;99.90
4564;DHT22;2294;51.818;8.484;2023-02-11T07:21:17;10.80;99.90
4564;DHT22;2294;51.818;8.484;2023-02-11T07:23:44;10.90;99.90
4564;DHT22;2294;51.818;8.484;2023-02-11T07:26:14;10.90;99.90
4564;DHT22;2294;51.818;8.484;2023-02-11T07:28:41;10.90;99.90
4564;DHT22;2294;51.818;8.484;2023-02-11T07:31:13;10.90;99.90
4564;DHT22;2294;51.818;8.484;2023-02-11T07:33:41;10.90;99.90
4564;DHT22;2294;51.818;8.484;2023-02-11T07:36:11;11.00;99.90
4564;DHT22;2294;51.818;8.484;2023-02-11T07:38:38;11.00;99.90
4564;DHT22;2294;51.818;8.484;2023-02-11T07:41:07;11.10;99.90
4564;DHT22;2294;51.818;8.484;2023-02-11T07:43:35;11.10;99.90
4564;DHT22;2294;51.818;8.484;2023-02-11T07:46:03;11.10;99.90
4564;DHT22;2294;51.818;8.484;2023-02-11T07:48:31;11.20;99.90
4564;DHT22;2294;51.818;8.484;2023-02-11T07:51:05;11.20;99.90
4564;DHT22;2294;51.818;8.484;2023-02-11T07:53:32;11.20;99.90
4564;DHT22;2294;51.818;8.484;2023-02-11T07:55:59;11.30;99.90
4564;DHT22;2294;51.818;8.484;2023-02-11T07:58:25;11.30;99.90
4564;DHT22;2294;51.818;8.484;2023-02-11T08:00:53;11.30;99.90
4564;DHT22;2294;51.818;8.484;2023-02-11T08:03:19;11.30;99.90
4564;DHT22;2294;51.818;8.484;2023-02-11T08:05:48;11.40;99.90
4564;DHT22;2294;51.818;8.484;2023-02-11T08:08:14;11.40;99.90
4564;DHT22;2294;51.818;8.484;2023-02-11T08:10:41;11.40;99.90
4564;DHT22;2294;51.818;8.484;2023-02-11T08:13:08;11.40;99.90
4564;DHT22;2294;51.818;8.484;2023-02-11T08:15:35;11.40;99.90
4564;DHT22;2294;51.818;8.484;2023-02-11T08:18:02;11.50;99.90
4564;DHT22;2294;51.818;8.484;2023-02-11T08:20:29;11.50;99.90
4564;DHT22;2294;51.818;8.484;2023-02-11T08:22:57;11.50;99.90
4564;DHT22;2294;51.818;8.484;2023-02-11T08:25:24;11.50;99.90
4564;DHT22;2294;51.818;8.484;2023-02-11T08:27:51;11.50;99.90
4564;DHT22;2294;51.818;8.484;2023-02-11T08:30:18;11.50;99.90
4564;DHT22;2294;51.818;8.484;2023-02-11T08:32:45;11.60;99.90
4564;DHT22;2294;51.818;8.484;2023-02-11T08:35:12;11.60;99.90
4564;DHT22;2294;51.818;8.484;2023-02-11T08:37:38;11.60;99.90
4564;DHT22;2294;51.818;8.484;2023-02-11T08:40:08;11.60;99.90
4564;DHT22;2294;51.818;8.484;2023-02-11T08:42:34;11.60;99.90
4564;DHT22;2294;51.818;8.484;2023-02-11T08:45:01;11.60;99.90
4564;DHT22;2294;51.818;8.484;2023-02-11T08:47:29;11.70;99.90
4564;DHT22;2294;51.818;8.484;2023-02-11T08:49:56;11.70;99.90
4564;DHT22;2294;51.818;8.484;2023-02-11T08:52:23;11.70;99.90
4564;DHT22;2294;51.818;8.484;2023-02-11T08:54:50;11.80;99.90
4564;DHT22;2294;51.818;8.484;2023-02-11T08:57:19;11.80;99.90
4564;DHT22;2294;51.818;8.484;2023-02-11T08:59:46;11.80;99.90
4564;DHT22;2294;51.818;8.484;2023-02-11T09:02:13;11.80;99.90
4564;DHT22;2294;51.818;8.484;2023-02-11T09:04:40;11.90;99.90
4564;DHT22;2294;51.818;8.484;2023-02-11T09:07:07;11.90;99.90
4564;DHT22;2294;51.818;8.484;2023-02-11T09:09:34;11.90;99.90
4564;DHT22;2294;51.818;8.484;2023-02-11T09:12:01;12.00;99.90
4564;DHT22;2294;51.818;8.484;2023-02-11T09:14:29;12.00;99.90
4564;DHT22;2294;51.818;8.484;2023-02-11T09:16:56;12.10;99.90
4564;DHT22;2294;51.818;8.484;2023-02-11T09:19:23;12.20;99.90
4564;DHT22;2294;51.818;8.484;2023-02-11T09:21:50;12.20;99.90
4564;DHT22;2294;51.818;8.484;2023-02-11T09:24:17;12.20;99.90
4564;DHT22;2294;51.818;8.484;2023-02-11T09:26:44;12.30;99.90
4564;DHT22;2294;51.818;8.484;2023-02-11T09:29:11;12.40;99.90
4564;DHT22;2294;51.818;8.484;2023-02-11T09:31:39;12.40;99.90
4564;DHT22;2294;51.818;8.484;2023-02-11T09:34:06;12.40;99.90
4564;DHT22;2294;51.818;8.484;2023-02-11T09:36:36;12.40;99.90
4564;DHT22;2294;51.818;8.484;2023-02-11T09:39:04;12.40;99.90
4564;DHT22;2294;51.818;8.484;2023-02-11T09:41:41;12.40;99.90
4564;DHT22;2294;51.818;8.484;2023-02-11T09:44:18;12.50;99.90
4564;DHT22;2294;51.818;8.484;2023-02-11T09:46:52;12.50;99.90
4564;DHT22;2294;51.818;8.484;2023-02-11T09:49:22;12.50;99.90
4564;DHT22;2294;51.818;8.484;2023-02-11T09:51:55;12.50;99.90
4564;DHT22;2294;51.818;8.484;2023-02-11T09:54:27;12.50;99.90
4564;DHT22;2294;51.818;8.484;2023-02-11T09:56:55;12.60;99.90
4564;DHT22;2294;51.818;8.484;2023-02-11T09:59:22;12.60;99.90
4564;DHT22;2294;51.818;8.484;2023-02-11T10:01:56;12.60;99.90
4564;DHT22;2294;51.818;8.484;2023-02-11T10:04:34;12.60;99.90
4564;DHT22;2294;51.818;8.484;2023-02-11T10:07:12;12.70;99.90
4564;DHT22;2294;51.818;8.484;2023-02-11T10:09:52;12.70;99.90
4564;DHT22;2294;51.818;8.484;2023-02-11T10:12:34;12.80;99.90
4564;DHT22;2294;51.818;8.484;2023-02-11T10:15:16;12.80;99.90
4564;DHT22;2294;51.818;8.484;2023-02-11T10:17:54;12.80;99.90
4564;DHT22;2294;51.818;8.484;2023-02-11T10:20:31;12.80;99.90
4564;DHT22;2294;51.818;8.484;2023-02-11T10:23:00;12.90;99.90
4564;DHT22;2294;51.818;8.484;2023-02-11T10:25:34;12.80;99.90
4564;DHT22;2294;51.818;8.484;2023-02-11T10:28:11;12.80;99.90
4564;DHT22;2294;51.818;8.484;2023-02-11T10:30:42;12.80;99.90
4564;DHT22;2294;51.818;8.484;2023-02-11T10:33:23;12.90;99.90
4564;DHT22;2294;51.818;8.484;2023-02-11T10:35:52;12.90;99.90
4564;DHT22;2294;51.818;8.484;2023-02-11T10:38:19;12.90;99.90
4564;DHT22;2294;51.818;8.484;2023-02-11T10:40:46;12.90;99.90
4564;DHT22;2294;51.818;8.484;2023-02-11T10:43:14;12.90;99.90
4564;DHT22;2294;51.818;8.484;2023-02-11T10:45:43;12.90;99.90
4564;DHT22;2294;51.818;8.484;2023-02-11T10:48:36;12.90;99.90
4564;DHT22;2294;51.818;8.484;2023-02-11T10:51:07;12.90;99.90
4564;DHT22;2294;51.818;8.484;2023-02-11T10:53:38;12.90;99.90
4564;DHT22;2294;51.818;8.484;2023-02-11T10:56:06;12.90;99.90
4564;DHT22;2294;51.818;8.484;2023-02-11T10:58:39;12.90;99.90
4564;DHT22;2294;51.818;8.484;2023-02-11T11:01:06;12.90;99.90
4564;DHT22;2294;51.818;8.484;2023-02-11T11:03:37;12.90;99.90
4564;DHT22;2294;51.818;8.484;2023-02-11T11:06:07;12.90;99.90
4564;DHT22;2294;51.818;8.484;2023-02-11T11:08:40;13.00;99.90
4564;DHT22;2294;51.818;8.484;2023-02-11T11:11:10;13.00;99.90
4564;DHT22;2294;51.818;8.484;2023-02-11T11:13:39;13.00;99.90
4564;DHT22;2294;51.818;8.484;2023-02-11T11:16:24;13.00;99.90
4564;DHT22;2294;51.818;8.484;2023-02-11T11:19:14;13.00;99.90
4564;DHT22;2294;51.818;8.484;2023-02-11T11:21:43;13.10;99.90
4564;DHT22;2294;51.818;8.484;2023-02-11T11:24:16;13.10;99.90
4564;DHT22;2294;51.818;8.484;2023-02-11T11:26:45;13.20;99.90
4564;DHT22;2294;51.818;8.484;2023-02-11T11:29:15;13.20;99.90
4564;DHT22;2294;51.818;8.484;2023-02-11T11:31:49;13.30;99.90
4564;DHT22;2294;51.818;8.484;2023-02-11T11:34:22;13.30;99.90
4564;DHT22;2294;51.818;8.484;2023-02-11T11:36:52;13.40;99.90
4564;DHT22;2294;51.818;8.484;2023-02-11T11:39:22;13.40;99.90
4564;DHT22;2294;51.818;8.484;2023-02-11T11:41:53;13.50;99.90
4564;DHT22;2294;51.818;8.484;2023-02-11T11:44:25;13.50;99.90
4564;DHT22;2294;51.818;8.484;2023-02-11T11:47:06;13.60;99.90
4564;DHT22;2294;51.818;8.484;2023-02-11T11:49:42;13.70;99.90
4564;DHT22;2294;51.818;8.484;2023-02-11T11:52:32;13.70;99.90
4564;DHT22;2294;51.818;8.484;2023-02-11T11:55:05;14.00;99.90
4564;DHT22;2294;51.818;8.484;2023-02-11T11:57:37;13.70;99.90
4564;DHT22;2294;51.818;8.484;2023-02-11T12:00:08;13.80;99.90
4564;DHT22;2294;51.818;8.484;2023-02-11T12:03:08;13.80;99.90
4564;DHT22;2294;51.818;8.484;2023-02-11T12:05:48;13.80;99.90
4564;DHT22;2294;51.818;8.484;2023-02-11T12:08:23;13.90;99.90
4564;DHT22;2294;51.818;8.484;2023-02-11T12:11:07;13.90;99.90
4564;DHT22;2294;51.818;8.484;2023-02-11T12:13:45;13.90;99.90
4564;DHT22;2294;51.818;8.484;2023-02-11T12:16:24;13.90;99.90
4564;DHT22;2294;51.818;8.484;2023-02-11T12:19:12;14.00;99.90
4564;DHT22;2294;51.818;8.484;2023-02-11T12:21:53;14.10;99.90
4564;DHT22;2294;51.818;8.484;2023-02-11T12:24:33;14.00;99.90
4564;DHT22;2294;51.818;8.484;2023-02-11T12:27:10;14.00;99.90
4564;DHT22;2294;51.818;8.484;2023-02-11T12:29:54;14.00;99.90
4564;DHT22;2294;51.818;8.484;2023-02-11T12:32:30;14.00;99.90
4564;DHT22;2294;51.818;8.484;2023-02-11T12:35:16;14.00;99.90
4564;DHT22;2294;51.818;8.484;2023-02-11T12:38:01;14.00;99.90
4564;DHT22;2294;51.818;8.484;2023-02-11T12:40:38;14.00;99.90
4564;DHT22;2294;51.818;8.484;2023-02-11T12:43:15;14.10;99.90
4564;DHT22;2294;51.818;8.484;2023-02-11T12:46:01;14.10;99.90
4564;DHT22;2294;51.818;8.484;2023-02-11T12:51:42;14.00;99.90
4564;DHT22;2294;51.818;8.484;2023-02-11T12:54:20;14.10;99.90
4564;DHT22;2294;51.818;8.484;2023-02-11T12:56:52;14.10;99.90
4564;DHT22;2294;51.818;8.484;2023-02-11T12:59:37;14.10;99.90
4564;DHT22;2294;51.818;8.484;2023-02-11T13:02:14;14.10;99.90
4564;DHT22;2294;51.818;8.484;2023-02-11T13:04:48;14.00;99.90
4564;DHT22;2294;51.818;8.484;2023-02-11T13:07:20;14.10;99.90
4564;DHT22;2294;51.818;8.484;2023-02-11T13:09:53;14.00;99.90
4564;DHT22;2294;51.818;8.484;2023-02-11T13:12:22;14.00;99.90
4564;DHT22;2294;51.818;8.484;2023-02-11T13:15:13;14.00;99.90
4564;DHT22;2294;51.818;8.484;2023-02-11T13:17:45;13.90;99.90
4564;DHT22;2294;51.818;8.484;2023-02-11T13:20:20;13.90;99.90
4564;DHT22;2294;51.818;8.484;2023-02-11T13:22:57;13.80;99.90
4564;DHT22;2294;51.818;8.484;2023-02-11T13:25:30;13.90;99.90
4564;DHT22;2294;51.818;8.484;2023-02-11T13:28:07;14.00;99.90
4564;DHT22;2294;51.818;8.484;2023-02-11T13:30:36;13.90;99.90
4564;DHT22;2294;51.818;8.484;2023-02-11T13:33:18;13.80;99.90
4564;DHT22;2294;51.818;8.484;2023-02-11T13:35:48;13.70;99.90
4564;DHT22;2294;51.818;8.484;2023-02-11T13:38:21;13.70;99.90
4564;DHT22;2294;51.818;8.484;2023-02-11T13:41:01;13.70;99.90
4564;DHT22;2294;51.818;8.484;2023-02-11T13:43:30;13.60;99.90
4564;DHT22;2294;51.818;8.484;2023-02-11T13:45:59;13.50;99.90
4564;DHT22;2294;51.818;8.484;2023-02-11T13:48:28;13.50;99.90
4564;DHT22;2294;51.818;8.484;2023-02-11T13:50:58;13.50;99.90
4564;DHT22;2294;51.818;8.484;2023-02-11T13:53:26;13.40;99.90
4564;DHT22;2294;51.818;8.484;2023-02-11T13:56:06;13.50;99.90
4564;DHT22;2294;51.818;8.484;2023-02-11T13:58:35;13.30;99.90
4564;DHT22;2294;51.818;8.484;2023-02-11T14:01:05;13.40;99.90
4564;DHT22;2294;51.818;8.484;2023-02-11T14:03:35;13.40;99.90
4564;DHT22;2294;51.818;8.484;2023-02-11T14:06:23;13.30;99.90
4564;DHT22;2294;51.818;8.484;2023-02-11T14:09:33;13.30;99.90
4564;DHT22;2294;51.818;8.484;2023-02-11T14:12:29;13.30;99.90
4564;DHT22;2294;51.818;8.484;2023-02-11T14:15:17;13.30;99.90
4564;DHT22;2294;51.818;8.484;2023-02-11T14:17:44;13.30;99.90
4564;DHT22;2294;51.818;8.484;2023-02-11T14:20:42;13.20;99.90
4564;DHT22;2294;51.818;8.484;2023-02-11T14:23:22;13.20;99.90
4564;DHT22;2294;51.818;8.484;2023-02-11T14:28:41;13.20;99.90
4564;DHT22;2294;51.818;8.484;2023-02-11T14:31:13;13.20;99.90
4564;DHT22;2294;51.818;8.484;2023-02-11T14:36:53;13.10;99.90
4564;DHT22;2294;51.818;8.484;2023-02-11T14:39:32;13.20;99.90
4564;DHT22;2294;51.818;8.484;2023-02-11T14:42:03;13.30;99.90
4564;DHT22;2294;51.818;8.484;2023-02-11T14:44:32;13.10;99.90
4564;DHT22;2294;51.818;8.484;2023-02-11T14:46:59;13.10;99.90
4564;DHT22;2294;51.818;8.484;2023-02-11T14:49:28;13.10;99.90
4564;DHT22;2294;51.818;8.484;2023-02-11T14:52:01;13.00;99.90
4564;DHT22;2294;51.818;8.484;2023-02-11T14:54:30;13.00;99.90
4564;DHT22;2294;51.818;8.484;2023-02-11T14:57:10;13.00;99.90
4564;DHT22;2294;51.818;8.484;2023-02-11T14:59:39;13.00;99.90
4564;DHT22;2294;51.818;8.484;2023-02-11T15:02:19;13.00;99.90
4564;DHT22;2294;51.818;8.484;2023-02-11T15:04:47;13.00;99.90
4564;DHT22;2294;51.818;8.484;2023-02-11T15:07:14;12.90;99.90
4564;DHT22;2294;51.818;8.484;2023-02-11T15:09:43;12.90;99.90
4564;DHT22;2294;51.818;8.484;2023-02-11T15:12:16;12.80;99.90
4564;DHT22;2294;51.818;8.484;2023-02-11T15:14:47;12.80;99.90
4564;DHT22;2294;51.818;8.484;2023-02-11T15:17:19;12.80;99.90
4564;DHT22;2294;51.818;8.484;2023-02-11T15:19:48;12.80;99.90
4564;DHT22;2294;51.818;8.484;2023-02-11T15:22:20;12.80;99.90
4564;DHT22;2294;51.818;8.484;2023-02-11T15:24:57;12.80;99.90
4564;DHT22;2294;51.818;8.484;2023-02-11T15:27:25;12.80;99.90
4564;DHT22;2294;51.818;8.484;2023-02-11T15:29:53;12.80;99.90
4564;DHT22;2294;51.818;8.484;2023-02-11T15:32:21;12.80;99.90
4564;DHT22;2294;51.818;8.484;2023-02-11T15:34:50;12.70;99.90
4564;DHT22;2294;51.818;8.484;2023-02-11T15:37:20;12.80;99.90
4564;DHT22;2294;51.818;8.484;2023-02-11T15:39:47;12.80;99.90
4564;DHT22;2294;51.818;8.484;2023-02-11T15:42:16;12.70;99.90
4564;DHT22;2294;51.818;8.484;2023-02-11T15:44:43;12.70;99.90
4564;DHT22;2294;51.818;8.484;2023-02-11T15:47:12;12.70;99.90
4564;DHT22;2294;51.818;8.484;2023-02-11T15:49:43;12.70;99.90
4564;DHT22;2294;51.818;8.484;2023-02-11T15:52:12;12.70;99.90
4564;DHT22;2294;51.818;8.484;2023-02-11T15:54:39;12.70;99.90
4564;DHT22;2294;51.818;8.484;2023-02-11T15:57:11;12.60;99.90
4564;DHT22;2294;51.818;8.484;2023-02-11T15:59:49;12.70;99.90
4564;DHT22;2294;51.818;8.484;2023-02-11T16:02:19;12.70;99.90
4564;DHT22;2294;51.818;8.484;2023-02-11T16:04:49;12.60;99.90
4564;DHT22;2294;51.818;8.484;2023-02-11T16:07:42;12.60;99.90
4564;DHT22;2294;51.818;8.484;2023-02-11T16:10:17;12.60;99.90
4564;DHT22;2294;51.818;8.484;2023-02-11T16:12:51;12.60;99.90
4564;DHT22;2294;51.818;8.484;2023-02-11T16:21:03;12.50;99.90
4564;DHT22;2294;51.818;8.484;2023-02-11T16:23:32;12.60;99.90
4564;DHT22;2294;51.818;8.484;2023-02-11T16:26:02;12.60;99.90
4564;DHT22;2294;51.818;8.484;2023-02-11T16:28:33;12.50;99.90
4564;DHT22;2294;51.818;8.484;2023-02-11T16:31:00;12.60;99.90
4564;DHT22;2294;51.818;8.484;2023-02-11T16:33:29;12.60;99.90
4564;DHT22;2294;51.818;8.484;2023-02-11T16:35:56;12.60;99.90
4564;DHT22;2294;51.818;8.484;2023-02-11T16:38:27;12.60;99.90
4564;DHT22;2294;51.818;8.484;2023-02-11T16:40:54;12.60;99.90
4564;DHT22;2294;51.818;8.484;2023-02-11T16:43:23;12.60;99.90
4564;DHT22;2294;51.818;8.484;2023-02-11T16:45:50;12.60;99.90
4564;DHT22;2294;51.818;8.484;2023-02-11T16:48:17;12.60;99.90
4564;DHT22;2294;51.818;8.484;2023-02-11T16:50:48;12.60;99.90